sensor_id;sensor_type;location;lat;lon;timestamp;P1;durP1;ratioP1;P2;durP2;ratioP2
50543;SDS011;41176;44.032;20.900;2022-07-22T00:02:09;4.30;;;2.90;;
50543;SDS011;41176;44.032;20.900;2022-07-22T00:04:35;3.72;;;2.75;;
50543;SDS011;41176;44.032;20.900;2022-07-22T00:07:01;4.15;;;2.70;;
50543;SDS011;41176;44.032;20.900;2022-07-22T00:09:27;6.03;;;3.33;;
50543;SDS011;41176;44.032;20.900;2022-07-22T00:11:53;3.83;;;2.45;;
50543;SDS011;41176;44.032;20.900;2022-07-22T00:14:19;6.22;;;2.92;;
50543;SDS011;41176;44.032;20.900;2022-07-22T00:16:44;5.53;;;3.00;;
50543;SDS011;41176;44.032;20.900;2022-07-22T00:19:10;7.32;;;2.83;;
50543;SDS011;41176;44.032;20.900;2022-07-22T00:21:36;5.82;;;2.78;;
50543;SDS011;41176;44.032;20.900;2022-07-22T00:24:02;5.50;;;2.88;;
50543;SDS011;41176;44.032;20.900;2022-07-22T00:26:28;4.47;;;2.65;;
50543;SDS011;41176;44.032;20.900;2022-07-22T00:28:54;9.35;;;2.97;;
50543;SDS011;41176;44.032;20.900;2022-07-22T00:31:20;6.03;;;2.70;;
50543;SDS011;41176;44.032;20.900;2022-07-22T00:33:46;5.50;;;2.85;;
50543;SDS011;41176;44.032;20.900;2022-07-22T00:36:11;5.25;;;2.80;;
50543;SDS011;41176;44.032;20.900;2022-07-22T00:38:38;5.05;;;2.97;;
50543;SDS011;41176;44.032;20.900;2022-07-22T00:41:04;5.07;;;2.90;;
50543;SDS011;41176;44.032;20.900;2022-07-22T00:46:14;6.68;;;2.63;;
50543;SDS011;41176;44.032;20.900;2022-07-22T00:48:40;4.43;;;2.58;;
50543;SDS011;41176;44.032;20.900;2022-07-22T00:51:06;5.82;;;2.67;;
50543;SDS011;41176;44.032;20.900;2022-07-22T00:53:32;4.10;;;2.42;;
50543;SDS011;41176;44.032;20.900;2022-07-22T00:55:58;4.30;;;2.88;;
50543;SDS011;41176;44.032;20.900;2022-07-22T00:58:24;6.30;;;2.90;;
50543;SDS011;41176;44.032;20.900;2022-07-22T01:00:49;7.85;;;2.97;;
50543;SDS011;41176;44.032;20.900;2022-07-22T01:03:15;5.13;;;2.42;;
50543;SDS011;41176;44.032;20.900;2022-07-22T01:05:41;6.00;;;2.50;;
50543;SDS011;41176;44.032;20.900;2022-07-22T01:08:07;5.25;;;2.83;;
50543;SDS011;41176;44.032;20.900;2022-07-22T01:10:34;4.20;;;2.40;;
50543;SDS011;41176;44.032;20.900;2022-07-22T01:13:00;5.28;;;3.08;;
50543;SDS011;41176;44.032;20.900;2022-07-22T01:15:25;5.03;;;2.40;;
50543;SDS011;41176;44.032;20.900;2022-07-22T01:17:51;3.30;;;2.22;;
50543;SDS011;41176;44.032;20.900;2022-07-22T01:20:17;4.25;;;2.70;;
50543;SDS011;41176;44.032;20.900;2022-07-22T01:22:43;7.07;;;2.70;;
50543;SDS011;41176;44.032;20.900;2022-07-22T01:25:10;4.78;;;2.45;;
50543;SDS011;41176;44.032;20.900;2022-07-22T01:27:36;5.55;;;3.33;;
50543;SDS011;41176;44.032;20.900;2022-07-22T01:30:03;9.30;;;4.15;;
50543;SDS011;41176;44.032;20.900;2022-07-22T01:32:30;8.63;;;4.05;;
50543;SDS011;41176;44.032;20.900;2022-07-22T01:34:56;9.13;;;4.30;;
50543;SDS011;41176;44.032;20.900;2022-07-22T01:37:22;9.95;;;4.65;;
50543;SDS011;41176;44.032;20.900;2022-07-22T01:39:48;6.97;;;4.10;;
50543;SDS011;41176;44.032;20.900;2022-07-22T01:42:14;6.90;;;3.55;;
50543;SDS011;41176;44.032;20.900;2022-07-22T01:44:40;7.85;;;4.07;;
50543;SDS011;41176;44.032;20.900;2022-07-22T01:47:06;5.88;;;3.53;;
50543;SDS011;41176;44.032;20.900;2022-07-22T01:49:32;10.05;;;3.42;;
50543;SDS011;41176;44.032;20.900;2022-07-22T01:51:59;6.90;;;3.45;;
50543;SDS011;41176;44.032;20.900;2022-07-22T01:54:29;6.53;;;3.22;;
50543;SDS011;41176;44.032;20.900;2022-07-22T01:56:55;6.97;;;2.80;;
50543;SDS011;41176;44.032;20.900;2022-07-22T01:59:21;5.88;;;3.13;;
50543;SDS011;41176;44.032;20.900;2022-07-22T02:01:46;6.03;;;2.70;;
50543;SDS011;41176;44.032;20.900;2022-07-22T02:04:12;5.00;;;2.80;;
50543;SDS011;41176;44.032;20.900;2022-07-22T02:06:38;5.57;;;3.05;;
50543;SDS011;41176;44.032;20.900;2022-07-22T02:09:04;6.75;;;2.90;;
50543;SDS011;41176;44.032;20.900;2022-07-22T02:11:30;4.15;;;2.85;;
50543;SDS011;41176;44.032;20.900;2022-07-22T02:13:56;9.32;;;3.80;;
50543;SDS011;41176;44.032;20.900;2022-07-22T02:16:22;7.32;;;3.78;;
50543;SDS011;41176;44.032;20.900;2022-07-22T02:18:47;5.10;;;2.97;;
50543;SDS011;41176;44.032;20.900;2022-07-22T02:21:13;5.63;;;3.08;;
50543;SDS011;41176;44.032;20.900;2022-07-22T02:23:39;5.28;;;3.03;;
50543;SDS011;41176;44.032;20.900;2022-07-22T02:26:05;7.97;;;2.90;;
50543;SDS011;41176;44.032;20.900;2022-07-22T02:28:31;5.82;;;2.83;;
50543;SDS011;41176;44.032;20.900;2022-07-22T02:30:56;5.43;;;2.95;;
50543;SDS011;41176;44.032;20.900;2022-07-22T02:33:22;4.53;;;2.55;;
50543;SDS011;41176;44.032;20.900;2022-07-22T02:35:48;7.25;;;2.53;;
50543;SDS011;41176;44.032;20.900;2022-07-22T02:38:14;7.18;;;3.05;;
50543;SDS011;41176;44.032;20.900;2022-07-22T02:40:39;6.80;;;2.80;;
50543;SDS011;41176;44.032;20.900;2022-07-22T02:43:05;5.28;;;2.80;;
50543;SDS011;41176;44.032;20.900;2022-07-22T02:45:32;5.90;;;2.95;;
50543;SDS011;41176;44.032;20.900;2022-07-22T02:47:58;7.43;;;3.17;;
50543;SDS011;41176;44.032;20.900;2022-07-22T02:50:24;5.13;;;2.97;;
50543;SDS011;41176;44.032;20.900;2022-07-22T02:52:50;5.30;;;2.67;;
50543;SDS011;41176;44.032;20.900;2022-07-22T02:55:17;4.55;;;2.72;;
50543;SDS011;41176;44.032;20.900;2022-07-22T02:57:43;6.40;;;3.05;;
50543;SDS011;41176;44.032;20.900;2022-07-22T03:00:10;5.18;;;2.85;;
50543;SDS011;41176;44.032;20.900;2022-07-22T03:02:37;4.93;;;2.85;;
50543;SDS011;41176;44.032;20.900;2022-07-22T03:05:04;5.50;;;2.92;;
50543;SDS011;41176;44.032;20.900;2022-07-22T03:07:30;4.63;;;2.70;;
50543;SDS011;41176;44.032;20.900;2022-07-22T03:09:56;4.55;;;2.90;;
50543;SDS011;41176;44.032;20.900;2022-07-22T03:12:21;8.43;;;3.05;;
50543;SDS011;41176;44.032;20.900;2022-07-22T03:14:47;6.47;;;3.17;;
50543;SDS011;41176;44.032;20.900;2022-07-22T03:17:14;6.07;;;3.40;;
50543;SDS011;41176;44.032;20.900;2022-07-22T03:19:40;5.22;;;3.03;;
50543;SDS011;41176;44.032;20.900;2022-07-22T03:22:05;5.43;;;3.03;;
50543;SDS011;41176;44.032;20.900;2022-07-22T03:24:31;5.97;;;2.70;;
50543;SDS011;41176;44.032;20.900;2022-07-22T03:26:57;6.65;;;3.10;;
50543;SDS011;41176;44.032;20.900;2022-07-22T03:29:23;4.70;;;2.67;;
50543;SDS011;41176;44.032;20.900;2022-07-22T03:31:48;5.70;;;2.90;;
50543;SDS011;41176;44.032;20.900;2022-07-22T03:34:14;8.45;;;2.75;;
50543;SDS011;41176;44.032;20.900;2022-07-22T03:36:40;6.82;;;2.90;;
50543;SDS011;41176;44.032;20.900;2022-07-22T03:39:06;8.27;;;3.03;;
50543;SDS011;41176;44.032;20.900;2022-07-22T03:41:32;5.15;;;2.60;;
50543;SDS011;41176;44.032;20.900;2022-07-22T03:43:58;6.28;;;3.03;;
50543;SDS011;41176;44.032;20.900;2022-07-22T03:46:23;5.25;;;3.08;;
50543;SDS011;41176;44.032;20.900;2022-07-22T03:48:49;4.93;;;2.97;;
50543;SDS011;41176;44.032;20.900;2022-07-22T03:51:18;4.25;;;2.70;;
50543;SDS011;41176;44.032;20.900;2022-07-22T03:53:44;5.80;;;3.05;;
50543;SDS011;41176;44.032;20.900;2022-07-22T03:56:09;5.55;;;2.88;;
50543;SDS011;41176;44.032;20.900;2022-07-22T03:58:36;6.65;;;2.95;;
50543;SDS011;41176;44.032;20.900;2022-07-22T04:01:02;6.57;;;2.50;;
50543;SDS011;41176;44.032;20.900;2022-07-22T04:03:28;5.00;;;3.20;;
50543;SDS011;41176;44.032;20.900;2022-07-22T04:05:53;5.40;;;2.80;;
50543;SDS011;41176;44.032;20.900;2022-07-22T04:08:19;6.53;;;3.60;;
50543;SDS011;41176;44.032;20.900;2022-07-22T04:10:45;9.20;;;4.18;;
50543;SDS011;41176;44.032;20.900;2022-07-22T04:13:11;8.77;;;3.45;;
50543;SDS011;41176;44.032;20.900;2022-07-22T04:15:37;11.80;;;4.22;;
50543;SDS011;41176;44.032;20.900;2022-07-22T04:18:02;9.20;;;3.95;;
50543;SDS011;41176;44.032;20.900;2022-07-22T04:20:28;6.97;;;3.25;;
50543;SDS011;41176;44.032;20.900;2022-07-22T04:22:54;6.47;;;3.88;;
50543;SDS011;41176;44.032;20.900;2022-07-22T04:25:20;5.30;;;2.80;;
50543;SDS011;41176;44.032;20.900;2022-07-22T04:27:45;7.35;;;3.13;;
50543;SDS011;41176;44.032;20.900;2022-07-22T04:30:11;6.57;;;3.13;;
50543;SDS011;41176;44.032;20.900;2022-07-22T04:32:37;5.18;;;2.92;;
50543;SDS011;41176;44.032;20.900;2022-07-22T04:35:04;6.05;;;3.33;;
50543;SDS011;41176;44.032;20.900;2022-07-22T04:37:30;5.40;;;2.78;;
50543;SDS011;41176;44.032;20.900;2022-07-22T04:39:56;4.93;;;2.90;;
50543;SDS011;41176;44.032;20.900;2022-07-22T04:42:21;8.20;;;3.17;;
50543;SDS011;41176;44.032;20.900;2022-07-22T04:44:47;4.90;;;2.97;;
50543;SDS011;41176;44.032;20.900;2022-07-22T04:47:13;4.88;;;2.80;;
50543;SDS011;41176;44.032;20.900;2022-07-22T04:49:39;5.95;;;2.90;;
50543;SDS011;41176;44.032;20.900;2022-07-22T04:52:04;4.65;;;2.75;;
50543;SDS011;41176;44.032;20.900;2022-07-22T04:54:30;5.65;;;3.05;;
50543;SDS011;41176;44.032;20.900;2022-07-22T04:56:56;5.20;;;3.70;;
50543;SDS011;41176;44.032;20.900;2022-07-22T04:59:22;5.38;;;2.90;;
50543;SDS011;41176;44.032;20.900;2022-07-22T05:01:48;6.03;;;3.70;;
50543;SDS011;41176;44.032;20.900;2022-07-22T05:04:13;5.20;;;3.05;;
50543;SDS011;41176;44.032;20.900;2022-07-22T05:06:40;6.10;;;3.17;;
50543;SDS011;41176;44.032;20.900;2022-07-22T05:09:05;7.30;;;3.30;;
50543;SDS011;41176;44.032;20.900;2022-07-22T05:11:32;5.30;;;2.97;;
50543;SDS011;41176;44.032;20.900;2022-07-22T05:13:58;5.47;;;2.90;;
50543;SDS011;41176;44.032;20.900;2022-07-22T05:16:24;4.18;;;2.80;;
50543;SDS011;41176;44.032;20.900;2022-07-22T05:18:49;4.60;;;2.70;;
50543;SDS011;41176;44.032;20.900;2022-07-22T05:21:15;4.68;;;2.97;;
50543;SDS011;41176;44.032;20.900;2022-07-22T05:23:41;5.07;;;2.65;;
50543;SDS011;41176;44.032;20.900;2022-07-22T05:26:07;4.07;;;2.90;;
50543;SDS011;41176;44.032;20.900;2022-07-22T05:28:34;4.13;;;2.65;;
50543;SDS011;41176;44.032;20.900;2022-07-22T05:30:59;5.70;;;2.83;;
50543;SDS011;41176;44.032;20.900;2022-07-22T05:33:25;6.47;;;2.70;;
50543;SDS011;41176;44.032;20.900;2022-07-22T05:35:51;5.68;;;2.67;;
50543;SDS011;41176;44.032;20.900;2022-07-22T05:38:17;6.20;;;2.88;;
50543;SDS011;41176;44.032;20.900;2022-07-22T05:40:43;5.43;;;2.80;;
50543;SDS011;41176;44.032;20.900;2022-07-22T05:43:08;5.13;;;2.72;;
50543;SDS011;41176;44.032;20.900;2022-07-22T05:45:34;4.10;;;2.72;;
50543;SDS011;41176;44.032;20.900;2022-07-22T05:48:00;3.50;;;2.50;;
50543;SDS011;41176;44.032;20.900;2022-07-22T05:50:26;4.55;;;2.50;;
50543;SDS011;41176;44.032;20.900;2022-07-22T05:52:52;5.78;;;2.83;;
50543;SDS011;41176;44.032;20.900;2022-07-22T05:55:19;6.25;;;2.95;;
50543;SDS011;41176;44.032;20.900;2022-07-22T05:57:45;3.88;;;2.60;;
50543;SDS011;41176;44.032;20.900;2022-07-22T06:00:10;3.83;;;2.40;;
50543;SDS011;41176;44.032;20.900;2022-07-22T06:02:36;5.50;;;2.72;;
50543;SDS011;41176;44.032;20.900;2022-07-22T06:05:03;4.88;;;2.70;;
50543;SDS011;41176;44.032;20.900;2022-07-22T06:07:29;5.72;;;3.00;;
50543;SDS011;41176;44.032;20.900;2022-07-22T06:09:54;5.50;;;2.53;;
50543;SDS011;41176;44.032;20.900;2022-07-22T06:12:20;3.50;;;2.40;;
50543;SDS011;41176;44.032;20.900;2022-07-22T06:14:46;4.05;;;2.28;;
50543;SDS011;41176;44.032;20.900;2022-07-22T06:17:12;4.38;;;2.85;;
50543;SDS011;41176;44.032;20.900;2022-07-22T06:19:38;5.60;;;2.60;;
50543;SDS011;41176;44.032;20.900;2022-07-22T06:22:04;3.67;;;2.40;;
50543;SDS011;41176;44.032;20.900;2022-07-22T06:24:30;5.35;;;3.03;;
50543;SDS011;41176;44.032;20.900;2022-07-22T06:26:56;4.95;;;2.58;;
50543;SDS011;41176;44.032;20.900;2022-07-22T06:29:21;4.13;;;2.58;;
50543;SDS011;41176;44.032;20.900;2022-07-22T06:31:47;4.38;;;2.60;;
50543;SDS011;41176;44.032;20.900;2022-07-22T06:34:13;7.15;;;2.50;;
50543;SDS011;41176;44.032;20.900;2022-07-22T06:36:39;4.55;;;2.50;;
50543;SDS011;41176;44.032;20.900;2022-07-22T06:39:05;3.92;;;2.25;;
50543;SDS011;41176;44.032;20.900;2022-07-22T06:41:31;4.05;;;2.42;;
50543;SDS011;41176;44.032;20.900;2022-07-22T06:43:57;4.88;;;2.58;;
50543;SDS011;41176;44.032;20.900;2022-07-22T06:46:22;5.07;;;2.50;;
50543;SDS011;41176;44.032;20.900;2022-07-22T06:48:48;3.95;;;2.42;;
50543;SDS011;41176;44.032;20.900;2022-07-22T06:51:14;3.80;;;2.45;;
50543;SDS011;41176;44.032;20.900;2022-07-22T06:53:40;5.40;;;2.85;;
50543;SDS011;41176;44.032;20.900;2022-07-22T06:56:06;4.68;;;2.30;;
50543;SDS011;41176;44.032;20.900;2022-07-22T06:58:32;3.80;;;2.38;;
50543;SDS011;41176;44.032;20.900;2022-07-22T07:00:58;5.20;;;2.75;;
50543;SDS011;41176;44.032;20.900;2022-07-22T07:03:24;4.90;;;2.50;;
50543;SDS011;41176;44.032;20.900;2022-07-22T07:05:51;5.32;;;2.30;;
50543;SDS011;41176;44.032;20.900;2022-07-22T07:08:17;6.32;;;2.25;;
50543;SDS011;41176;44.032;20.900;2022-07-22T07:10:43;4.30;;;2.75;;
50543;SDS011;41176;44.032;20.900;2022-07-22T07:13:08;4.47;;;2.50;;
50543;SDS011;41176;44.032;20.900;2022-07-22T07:15:34;4.95;;;2.30;;
50543;SDS011;41176;44.032;20.900;2022-07-22T07:18:01;4.30;;;2.67;;
50543;SDS011;41176;44.032;20.900;2022-07-22T07:20:27;4.35;;;2.28;;
50543;SDS011;41176;44.032;20.900;2022-07-22T07:22:53;4.63;;;2.40;;
50543;SDS011;41176;44.032;20.900;2022-07-22T07:25:19;5.85;;;2.75;;
50543;SDS011;41176;44.032;20.900;2022-07-22T07:27:44;4.13;;;2.72;;
50543;SDS011;41176;44.032;20.900;2022-07-22T07:30:10;4.47;;;2.95;;
50543;SDS011;41176;44.032;20.900;2022-07-22T07:32:37;5.55;;;2.88;;
50543;SDS011;41176;44.032;20.900;2022-07-22T07:35:04;7.30;;;2.85;;
50543;SDS011;41176;44.032;20.900;2022-07-22T07:37:31;5.68;;;3.08;;
50543;SDS011;41176;44.032;20.900;2022-07-22T07:39:57;3.83;;;2.60;;
50543;SDS011;41176;44.032;20.900;2022-07-22T07:42:23;5.75;;;2.78;;
50543;SDS011;41176;44.032;20.900;2022-07-22T07:48:00;5.32;;;2.67;;
50543;SDS011;41176;44.032;20.900;2022-07-22T07:50:26;4.63;;;2.60;;
50543;SDS011;41176;44.032;20.900;2022-07-22T07:52:52;5.32;;;2.22;;
50543;SDS011;41176;44.032;20.900;2022-07-22T07:55:18;5.07;;;2.10;;
50543;SDS011;41176;44.032;20.900;2022-07-22T07:57:45;3.00;;;1.85;;
50543;SDS011;41176;44.032;20.900;2022-07-22T08:00:13;3.53;;;1.92;;
50543;SDS011;41176;44.032;20.900;2022-07-22T08:02:41;4.72;;;2.20;;
50543;SDS011;41176;44.032;20.900;2022-07-22T08:05:07;6.47;;;2.03;;
50543;SDS011;41176;44.032;20.900;2022-07-22T08:07:35;3.95;;;2.40;;
50543;SDS011;41176;44.032;20.900;2022-07-22T08:10:02;3.67;;;1.92;;
50543;SDS011;41176;44.032;20.900;2022-07-22T08:12:29;4.38;;;1.77;;
50543;SDS011;41176;44.032;20.900;2022-07-22T08:14:54;6.38;;;2.00;;
50543;SDS011;41176;44.032;20.900;2022-07-22T08:17:20;3.40;;;2.13;;
50543;SDS011;41176;44.032;20.900;2022-07-22T08:19:46;4.05;;;2.00;;
50543;SDS011;41176;44.032;20.900;2022-07-22T08:22:12;4.28;;;2.13;;
50543;SDS011;41176;44.032;20.900;2022-07-22T08:24:37;3.22;;;2.00;;
50543;SDS011;41176;44.032;20.900;2022-07-22T08:27:03;2.92;;;1.80;;
50543;SDS011;41176;44.032;20.900;2022-07-22T08:29:29;3.90;;;1.92;;
50543;SDS011;41176;44.032;20.900;2022-07-22T08:31:55;3.85;;;2.05;;
50543;SDS011;41176;44.032;20.900;2022-07-22T08:34:21;3.33;;;2.05;;
50543;SDS011;41176;44.032;20.900;2022-07-22T08:36:46;3.75;;;1.85;;
50543;SDS011;41176;44.032;20.900;2022-07-22T08:39:12;3.40;;;1.73;;
50543;SDS011;41176;44.032;20.900;2022-07-22T08:41:38;3.67;;;1.63;;
50543;SDS011;41176;44.032;20.900;2022-07-22T08:44:06;3.47;;;2.10;;
50543;SDS011;41176;44.032;20.900;2022-07-22T08:46:33;7.13;;;1.92;;
50543;SDS011;41176;44.032;20.900;2022-07-22T08:49:00;4.60;;;1.77;;
50543;SDS011;41176;44.032;20.900;2022-07-22T08:51:26;3.05;;;1.50;;
50543;SDS011;41176;44.032;20.900;2022-07-22T08:53:53;2.78;;;1.50;;
50543;SDS011;41176;44.032;20.900;2022-07-22T08:56:19;3.17;;;1.55;;
50543;SDS011;41176;44.032;20.900;2022-07-22T08:58:45;2.30;;;1.30;;
50543;SDS011;41176;44.032;20.900;2022-07-22T09:01:12;4.07;;;1.42;;
50543;SDS011;41176;44.032;20.900;2022-07-22T09:03:47;3.80;;;2.10;;
50543;SDS011;41176;44.032;20.900;2022-07-22T09:06:15;3.78;;;1.60;;
50543;SDS011;41176;44.032;20.900;2022-07-22T09:11:18;2.80;;;1.33;;
50543;SDS011;41176;44.032;20.900;2022-07-22T09:13:45;2.65;;;1.38;;
50543;SDS011;41176;44.032;20.900;2022-07-22T09:16:12;3.53;;;1.30;;
50543;SDS011;41176;44.032;20.900;2022-07-22T09:18:45;2.75;;;1.38;;
50543;SDS011;41176;44.032;20.900;2022-07-22T09:21:12;2.97;;;1.33;;
50543;SDS011;41176;44.032;20.900;2022-07-22T09:23:39;2.63;;;1.20;;
50543;SDS011;41176;44.032;20.900;2022-07-22T09:26:06;4.28;;;1.42;;
50543;SDS011;41176;44.032;20.900;2022-07-22T09:28:32;3.15;;;1.40;;
50543;SDS011;41176;44.032;20.900;2022-07-22T09:30:58;3.05;;;1.58;;
50543;SDS011;41176;44.032;20.900;2022-07-22T09:33:24;2.72;;;1.50;;
50543;SDS011;41176;44.032;20.900;2022-07-22T09:35:51;2.25;;;1.25;;
50543;SDS011;41176;44.032;20.900;2022-07-22T09:38:28;2.72;;;1.33;;
50543;SDS011;41176;44.032;20.900;2022-07-22T09:40:56;3.35;;;1.50;;
50543;SDS011;41176;44.032;20.900;2022-07-22T09:43:23;3.72;;;1.33;;
50543;SDS011;41176;44.032;20.900;2022-07-22T09:45:51;3.67;;;1.30;;
50543;SDS011;41176;44.032;20.900;2022-07-22T09:48:19;2.28;;;1.10;;
50543;SDS011;41176;44.032;20.900;2022-07-22T09:50:46;2.40;;;1.30;;
50543;SDS011;41176;44.032;20.900;2022-07-22T09:53:14;3.47;;;1.23;;
50543;SDS011;41176;44.032;20.900;2022-07-22T09:55:41;3.55;;;1.20;;
50543;SDS011;41176;44.032;20.900;2022-07-22T09:58:07;2.33;;;1.10;;
50543;SDS011;41176;44.032;20.900;2022-07-22T10:00:33;2.22;;;1.00;;
50543;SDS011;41176;44.032;20.900;2022-07-22T10:03:01;2.08;;;1.08;;
50543;SDS011;41176;44.032;20.900;2022-07-22T10:05:30;2.78;;;1.20;;
50543;SDS011;41176;44.032;20.900;2022-07-22T10:07:57;2.42;;;1.20;;
50543;SDS011;41176;44.032;20.900;2022-07-22T10:10:26;2.55;;;1.30;;
50543;SDS011;41176;44.032;20.900;2022-07-22T10:12:54;3.25;;;1.30;;
50543;SDS011;41176;44.032;20.900;2022-07-22T10:15:22;2.40;;;1.10;;
50543;SDS011;41176;44.032;20.900;2022-07-22T10:17:50;1.98;;;1.02;;
50543;SDS011;41176;44.032;20.900;2022-07-22T10:20:20;2.30;;;1.10;;
50543;SDS011;41176;44.032;20.900;2022-07-22T10:22:49;2.05;;;1.08;;
50543;SDS011;41176;44.032;20.900;2022-07-22T10:25:17;2.95;;;1.33;;
50543;SDS011;41176;44.032;20.900;2022-07-22T10:27:45;3.17;;;1.40;;
50543;SDS011;41176;44.032;20.900;2022-07-22T10:30:23;2.90;;;1.10;;
50543;SDS011;41176;44.032;20.900;2022-07-22T10:33:11;2.30;;;0.95;;
50543;SDS011;41176;44.032;20.900;2022-07-22T10:35:53;2.58;;;0.93;;
50543;SDS011;41176;44.032;20.900;2022-07-22T10:38:26;2.22;;;1.00;;
50543;SDS011;41176;44.032;20.900;2022-07-22T10:41:00;2.28;;;1.05;;
50543;SDS011;41176;44.032;20.900;2022-07-22T10:43:30;2.30;;;1.00;;
50543;SDS011;41176;44.032;20.900;2022-07-22T10:46:10;3.25;;;0.95;;
50543;SDS011;41176;44.032;20.900;2022-07-22T10:53:46;2.15;;;1.00;;
50543;SDS011;41176;44.032;20.900;2022-07-22T10:56:28;2.47;;;1.10;;
50543;SDS011;41176;44.032;20.900;2022-07-22T11:01:34;3.63;;;1.17;;
50543;SDS011;41176;44.032;20.900;2022-07-22T11:06:41;2.15;;;1.02;;
50543;SDS011;41176;44.032;20.900;2022-07-22T11:09:08;1.90;;;0.95;;
50543;SDS011;41176;44.032;20.900;2022-07-22T11:11:40;2.40;;;1.10;;
50543;SDS011;41176;44.032;20.900;2022-07-22T11:14:15;2.30;;;1.00;;
50543;SDS011;41176;44.032;20.900;2022-07-22T11:16:57;2.30;;;1.17;;
50543;SDS011;41176;44.032;20.900;2022-07-22T11:19:31;2.20;;;1.20;;
50543;SDS011;41176;44.032;20.900;2022-07-22T11:21:58;2.92;;;1.15;;
50543;SDS011;41176;44.032;20.900;2022-07-22T11:24:35;2.25;;;1.10;;
50543;SDS011;41176;44.032;20.900;2022-07-22T11:27:02;4.43;;;1.38;;
50543;SDS011;41176;44.032;20.900;2022-07-22T11:29:38;2.88;;;1.38;;
50543;SDS011;41176;44.032;20.900;2022-07-22T11:32:08;3.05;;;1.33;;
50543;SDS011;41176;44.032;20.900;2022-07-22T11:34:36;3.15;;;1.10;;
50543;SDS011;41176;44.032;20.900;2022-07-22T11:37:07;2.42;;;1.20;;
50543;SDS011;41176;44.032;20.900;2022-07-22T11:39:33;2.40;;;1.13;;
50543;SDS011;41176;44.032;20.900;2022-07-22T11:42:00;2.40;;;1.20;;
50543;SDS011;41176;44.032;20.900;2022-07-22T11:44:27;2.70;;;1.10;;
50543;SDS011;41176;44.032;20.900;2022-07-22T11:46:54;3.50;;;1.70;;
50543;SDS011;41176;44.032;20.900;2022-07-22T11:49:23;4.70;;;1.10;;
50543;SDS011;41176;44.032;20.900;2022-07-22T11:51:50;2.60;;;1.27;;
50543;SDS011;41176;44.032;20.900;2022-07-22T11:54:16;4.43;;;1.50;;
50543;SDS011;41176;44.032;20.900;2022-07-22T11:56:43;7.82;;;1.20;;
50543;SDS011;41176;44.032;20.900;2022-07-22T11:59:11;2.55;;;1.13;;
50543;SDS011;41176;44.032;20.900;2022-07-22T12:01:39;2.58;;;1.27;;
50543;SDS011;41176;44.032;20.900;2022-07-22T12:04:09;5.43;;;1.30;;
50543;SDS011;41176;44.032;20.900;2022-07-22T12:06:38;3.70;;;1.23;;
50543;SDS011;41176;44.032;20.900;2022-07-22T12:09:09;2.78;;;1.10;;
50543;SDS011;41176;44.032;20.900;2022-07-22T12:11:56;2.55;;;1.30;;
50543;SDS011;41176;44.032;20.900;2022-07-22T12:14:27;2.30;;;1.30;;
50543;SDS011;41176;44.032;20.900;2022-07-22T12:16:57;3.90;;;1.27;;
50543;SDS011;41176;44.032;20.900;2022-07-22T12:19:31;2.22;;;1.30;;
50543;SDS011;41176;44.032;20.900;2022-07-22T12:22:03;2.42;;;1.25;;
50543;SDS011;41176;44.032;20.900;2022-07-22T12:27:04;2.15;;;1.00;;
50543;SDS011;41176;44.032;20.900;2022-07-22T12:39:59;3.50;;;1.48;;
50543;SDS011;41176;44.032;20.900;2022-07-22T12:42:26;3.53;;;1.30;;
50543;SDS011;41176;44.032;20.900;2022-07-22T12:44:59;2.63;;;1.30;;
50543;SDS011;41176;44.032;20.900;2022-07-22T12:47:41;2.83;;;1.50;;
50543;SDS011;41176;44.032;20.900;2022-07-22T12:50:17;3.05;;;1.33;;
50543;SDS011;41176;44.032;20.900;2022-07-22T12:52:43;3.05;;;1.42;;
50543;SDS011;41176;44.032;20.900;2022-07-22T12:55:08;2.72;;;1.40;;
50543;SDS011;41176;44.032;20.900;2022-07-22T12:57:34;2.70;;;1.52;;
50543;SDS011;41176;44.032;20.900;2022-07-22T13:00:00;2.63;;;1.40;;
50543;SDS011;41176;44.032;20.900;2022-07-22T13:02:26;3.17;;;1.45;;
50543;SDS011;41176;44.032;20.900;2022-07-22T13:04:51;2.90;;;1.50;;
50543;SDS011;41176;44.032;20.900;2022-07-22T13:07:17;2.97;;;1.40;;
50543;SDS011;41176;44.032;20.900;2022-07-22T13:09:43;3.20;;;1.40;;
50543;SDS011;41176;44.032;20.900;2022-07-22T13:12:09;3.38;;;1.77;;
50543;SDS011;41176;44.032;20.900;2022-07-22T13:14:34;3.53;;;1.83;;
50543;SDS011;41176;44.032;20.900;2022-07-22T13:17:00;2.55;;;1.30;;
50543;SDS011;41176;44.032;20.900;2022-07-22T13:19:26;2.47;;;1.40;;
50543;SDS011;41176;44.032;20.900;2022-07-22T13:21:51;2.45;;;1.38;;
50543;SDS011;41176;44.032;20.900;2022-07-22T13:24:17;4.15;;;1.30;;
50543;SDS011;41176;44.032;20.900;2022-07-22T13:26:43;2.60;;;1.23;;
50543;SDS011;41176;44.032;20.900;2022-07-22T13:29:09;2.88;;;1.65;;
50543;SDS011;41176;44.032;20.900;2022-07-22T13:31:35;2.83;;;1.52;;
50543;SDS011;41176;44.032;20.900;2022-07-22T13:34:01;3.53;;;1.65;;
50543;SDS011;41176;44.032;20.900;2022-07-22T13:36:27;2.10;;;1.27;;
50543;SDS011;41176;44.032;20.900;2022-07-22T13:38:53;2.40;;;1.40;;
50543;SDS011;41176;44.032;20.900;2022-07-22T13:41:19;3.70;;;1.30;;
50543;SDS011;41176;44.032;20.900;2022-07-22T13:43:45;3.65;;;1.50;;
50543;SDS011;41176;44.032;20.900;2022-07-22T13:46:11;3.97;;;1.25;;
50543;SDS011;41176;44.032;20.900;2022-07-22T13:48:37;2.30;;;1.40;;
50543;SDS011;41176;44.032;20.900;2022-07-22T13:51:03;2.83;;;1.50;;
50543;SDS011;41176;44.032;20.900;2022-07-22T13:53:30;2.45;;;1.40;;
50543;SDS011;41176;44.032;20.900;2022-07-22T13:55:55;4.10;;;1.50;;
50543;SDS011;41176;44.032;20.900;2022-07-22T13:58:21;2.47;;;1.27;;
50543;SDS011;41176;44.032;20.900;2022-07-22T14:00:47;2.22;;;1.20;;
50543;SDS011;41176;44.032;20.900;2022-07-22T14:03:14;2.67;;;1.33;;
50543;SDS011;41176;44.032;20.900;2022-07-22T14:05:40;3.45;;;1.40;;
50543;SDS011;41176;44.032;20.900;2022-07-22T14:08:07;2.53;;;1.40;;
50543;SDS011;41176;44.032;20.900;2022-07-22T14:10:32;2.88;;;1.50;;
50543;SDS011;41176;44.032;20.900;2022-07-22T14:12:58;4.47;;;1.50;;
50543;SDS011;41176;44.032;20.900;2022-07-22T14:15:24;3.08;;;1.45;;
50543;SDS011;41176;44.032;20.900;2022-07-22T14:17:50;2.50;;;1.50;;
50543;SDS011;41176;44.032;20.900;2022-07-22T14:20:16;3.30;;;1.38;;
50543;SDS011;41176;44.032;20.900;2022-07-22T14:22:42;3.85;;;1.48;;
50543;SDS011;41176;44.032;20.900;2022-07-22T14:25:08;3.28;;;1.55;;
50543;SDS011;41176;44.032;20.900;2022-07-22T14:27:34;3.97;;;1.20;;
50543;SDS011;41176;44.032;20.900;2022-07-22T14:29:59;2.70;;;1.42;;
50543;SDS011;41176;44.032;20.900;2022-07-22T14:32:27;2.83;;;1.50;;
50543;SDS011;41176;44.032;20.900;2022-07-22T14:34:53;2.00;;;1.10;;
50543;SDS011;41176;44.032;20.900;2022-07-22T14:37:19;2.35;;;1.15;;
50543;SDS011;41176;44.032;20.900;2022-07-22T14:39:45;2.70;;;1.27;;
50543;SDS011;41176;44.032;20.900;2022-07-22T14:42:11;2.50;;;1.27;;
50543;SDS011;41176;44.032;20.900;2022-07-22T14:44:36;2.28;;;1.13;;
50543;SDS011;41176;44.032;20.900;2022-07-22T14:47:02;2.30;;;1.20;;
50543;SDS011;41176;44.032;20.900;2022-07-22T14:49:28;2.70;;;1.38;;
50543;SDS011;41176;44.032;20.900;2022-07-22T14:51:54;2.80;;;1.48;;
50543;SDS011;41176;44.032;20.900;2022-07-22T14:54:20;1.85;;;1.10;;
50543;SDS011;41176;44.032;20.900;2022-07-22T14:56:45;2.33;;;1.35;;
50543;SDS011;41176;44.032;20.900;2022-07-22T14:59:11;2.50;;;1.30;;
50543;SDS011;41176;44.032;20.900;2022-07-22T15:01:37;2.45;;;1.23;;
50543;SDS011;41176;44.032;20.900;2022-07-22T15:04:02;3.90;;;1.55;;